sensor_id;sensor_type;location;lat;lon;timestamp;P1;durP1;ratioP1;P2;durP2;ratioP2
42196;SDS011;27866;48.146;17.098;2023-12-04T00:00:45;35.67;;;17.23;;
42196;SDS011;27866;48.146;17.098;2023-12-04T00:04:56;35.30;;;17.15;;
42196;SDS011;27866;48.146;17.098;2023-12-04T00:09:08;35.22;;;18.25;;
42196;SDS011;27866;48.146;17.098;2023-12-04T00:13:19;32.83;;;17.50;;
42196;SDS011;27866;48.146;17.098;2023-12-04T00:17:31;30.45;;;16.35;;
42196;SDS011;27866;48.146;17.098;2023-12-04T00:21:42;39.88;;;18.10;;
42196;SDS011;27866;48.146;17.098;2023-12-04T00:25:54;31.58;;;16.02;;
42196;SDS011;27866;48.146;17.098;2023-12-04T00:30:06;33.00;;;16.00;;
42196;SDS011;27866;48.146;17.098;2023-12-04T00:34:18;33.88;;;15.90;;
42196;SDS011;27866;48.146;17.098;2023-12-04T00:38:29;34.47;;;17.35;;
42196;SDS011;27866;48.146;17.098;2023-12-04T00:42:41;33.63;;;16.27;;
42196;SDS011;27866;48.146;17.098;2023-12-04T00:46:52;27.60;;;14.40;;
42196;SDS011;27866;48.146;17.098;2023-12-04T00:51:03;26.20;;;15.02;;
42196;SDS011;27866;48.146;17.098;2023-12-04T00:55:15;32.17;;;16.17;;
42196;SDS011;27866;48.146;17.098;2023-12-04T00:59:26;29.65;;;16.77;;
42196;SDS011;27866;48.146;17.098;2023-12-04T01:03:37;31.35;;;15.38;;
42196;SDS011;27866;48.146;17.098;2023-12-04T01:07:48;27.42;;;14.95;;
42196;SDS011;27866;48.146;17.098;2023-12-04T01:12:00;32.30;;;13.77;;
42196;SDS011;27866;48.146;17.098;2023-12-04T01:16:11;25.77;;;13.65;;
42196;SDS011;27866;48.146;17.098;2023-12-04T01:20:22;24.38;;;12.80;;
42196;SDS011;27866;48.146;17.098;2023-12-04T01:24:33;25.35;;;13.85;;
42196;SDS011;27866;48.146;17.098;2023-12-04T01:28:44;26.48;;;14.20;;
42196;SDS011;27866;48.146;17.098;2023-12-04T01:32:56;28.67;;;15.10;;
42196;SDS011;27866;48.146;17.098;2023-12-04T01:37:07;29.52;;;14.57;;
42196;SDS011;27866;48.146;17.098;2023-12-04T01:41:19;29.30;;;15.35;;
42196;SDS011;27866;48.146;17.098;2023-12-04T01:45:30;27.70;;;14.88;;
42196;SDS011;27866;48.146;17.098;2023-12-04T01:49:41;33.22;;;13.90;;
42196;SDS011;27866;48.146;17.098;2023-12-04T01:53:53;26.85;;;14.13;;
42196;SDS011;27866;48.146;17.098;2023-12-04T01:58:06;31.92;;;16.05;;
42196;SDS011;27866;48.146;17.098;2023-12-04T02:02:17;34.47;;;16.50;;
42196;SDS011;27866;48.146;17.098;2023-12-04T02:06:30;38.72;;;18.80;;
42196;SDS011;27866;48.146;17.098;2023-12-04T02:10:42;44.20;;;20.55;;
42196;SDS011;27866;48.146;17.098;2023-12-04T02:14:53;60.42;;;24.90;;
42196;SDS011;27866;48.146;17.098;2023-12-04T02:19:06;58.72;;;25.38;;
42196;SDS011;27866;48.146;17.098;2023-12-04T02:23:19;59.80;;;25.50;;
42196;SDS011;27866;48.146;17.098;2023-12-04T02:27:36;56.15;;;25.30;;
42196;SDS011;27866;48.146;17.098;2023-12-04T02:32:01;51.15;;;23.55;;
42196;SDS011;27866;48.146;17.098;2023-12-04T02:36:14;56.40;;;25.08;;
42196;SDS011;27866;48.146;17.098;2023-12-04T02:40:26;56.80;;;24.58;;
42196;SDS011;27866;48.146;17.098;2023-12-04T02:44:37;49.47;;;22.67;;
42196;SDS011;27866;48.146;17.098;2023-12-04T02:48:49;46.05;;;22.58;;
42196;SDS011;27866;48.146;17.098;2023-12-04T02:53:00;47.65;;;20.45;;
42196;SDS011;27866;48.146;17.098;2023-12-04T02:57:11;50.20;;;22.23;;
42196;SDS011;27866;48.146;17.098;2023-12-04T03:01:22;39.33;;;20.15;;
42196;SDS011;27866;48.146;17.098;2023-12-04T03:05:33;45.35;;;19.73;;
42196;SDS011;27866;48.146;17.098;2023-12-04T03:09:44;40.75;;;19.98;;
42196;SDS011;27866;48.146;17.098;2023-12-04T03:13:56;40.85;;;20.52;;
42196;SDS011;27866;48.146;17.098;2023-12-04T03:18:10;39.53;;;17.65;;
42196;SDS011;27866;48.146;17.098;2023-12-04T03:22:21;37.42;;;18.70;;
42196;SDS011;27866;48.146;17.098;2023-12-04T03:26:32;32.63;;;17.70;;
42196;SDS011;27866;48.146;17.098;2023-12-04T03:30:44;38.58;;;18.25;;
42196;SDS011;27866;48.146;17.098;2023-12-04T03:34:55;37.00;;;18.85;;
42196;SDS011;27866;48.146;17.098;2023-12-04T03:39:07;35.80;;;17.27;;
42196;SDS011;27866;48.146;17.098;2023-12-04T03:43:18;37.33;;;18.35;;
42196;SDS011;27866;48.146;17.098;2023-12-04T03:47:29;35.10;;;17.20;;
42196;SDS011;27866;48.146;17.098;2023-12-04T03:51:41;36.42;;;17.10;;
42196;SDS011;27866;48.146;17.098;2023-12-04T03:55:52;37.75;;;18.52;;
42196;SDS011;27866;48.146;17.098;2023-12-04T04:00:04;33.80;;;17.52;;
42196;SDS011;27866;48.146;17.098;2023-12-04T04:04:21;37.97;;;17.88;;
42196;SDS011;27866;48.146;17.098;2023-12-04T04:08:33;41.53;;;19.02;;
42196;SDS011;27866;48.146;17.098;2023-12-04T04:12:44;40.55;;;18.60;;
42196;SDS011;27866;48.146;17.098;2023-12-04T04:16:55;35.00;;;18.17;;
42196;SDS011;27866;48.146;17.098;2023-12-04T04:21:06;37.78;;;19.27;;
42196;SDS011;27866;48.146;17.098;2023-12-04T04:25:18;39.63;;;19.35;;
42196;SDS011;27866;48.146;17.098;2023-12-04T04:29:31;45.30;;;20.50;;
42196;SDS011;27866;48.146;17.098;2023-12-04T04:33:43;41.10;;;20.13;;
42196;SDS011;27866;48.146;17.098;2023-12-04T04:37:54;40.03;;;19.17;;
42196;SDS011;27866;48.146;17.098;2023-12-04T04:42:05;36.88;;;19.15;;
42196;SDS011;27866;48.146;17.098;2023-12-04T04:46:16;39.30;;;19.10;;
42196;SDS011;27866;48.146;17.098;2023-12-04T04:50:27;42.40;;;19.58;;
42196;SDS011;27866;48.146;17.098;2023-12-04T04:54:38;37.42;;;18.85;;
42196;SDS011;27866;48.146;17.098;2023-12-04T04:58:50;35.85;;;17.35;;
42196;SDS011;27866;48.146;17.098;2023-12-04T05:03:01;32.20;;;17.00;;
42196;SDS011;27866;48.146;17.098;2023-12-04T05:07:12;42.17;;;19.38;;
42196;SDS011;27866;48.146;17.098;2023-12-04T05:11:23;38.55;;;18.88;;
42196;SDS011;27866;48.146;17.098;2023-12-04T05:15:35;38.10;;;18.65;;
42196;SDS011;27866;48.146;17.098;2023-12-04T05:19:46;41.53;;;20.67;;
42196;SDS011;27866;48.146;17.098;2023-12-04T05:23:57;50.28;;;22.02;;
42196;SDS011;27866;48.146;17.098;2023-12-04T05:28:08;37.20;;;18.73;;
42196;SDS011;27866;48.146;17.098;2023-12-04T05:32:22;42.70;;;20.85;;
42196;SDS011;27866;48.146;17.098;2023-12-04T05:36:33;35.90;;;18.45;;
42196;SDS011;27866;48.146;17.098;2023-12-04T05:40:44;41.22;;;18.92;;
42196;SDS011;27866;48.146;17.098;2023-12-04T05:44:57;38.50;;;19.15;;
42196;SDS011;27866;48.146;17.098;2023-12-04T05:49:08;41.20;;;18.52;;
42196;SDS011;27866;48.146;17.098;2023-12-04T05:53:20;43.50;;;20.83;;
42196;SDS011;27866;48.146;17.098;2023-12-04T05:57:31;41.08;;;19.42;;
42196;SDS011;27866;48.146;17.098;2023-12-04T06:01:43;35.88;;;18.08;;
42196;SDS011;27866;48.146;17.098;2023-12-04T06:05:54;36.83;;;17.83;;
42196;SDS011;27866;48.146;17.098;2023-12-04T06:10:05;31.80;;;15.93;;
42196;SDS011;27866;48.146;17.098;2023-12-04T06:14:18;29.38;;;15.18;;
42196;SDS011;27866;48.146;17.098;2023-12-04T06:18:29;34.15;;;16.58;;
42196;SDS011;27866;48.146;17.098;2023-12-04T06:22:40;37.13;;;17.58;;
42196;SDS011;27866;48.146;17.098;2023-12-04T06:26:52;35.85;;;19.38;;
42196;SDS011;27866;48.146;17.098;2023-12-04T06:31:04;38.00;;;19.42;;
42196;SDS011;27866;48.146;17.098;2023-12-04T06:35:16;36.92;;;18.05;;
42196;SDS011;27866;48.146;17.098;2023-12-04T06:39:29;37.75;;;18.08;;
42196;SDS011;27866;48.146;17.098;2023-12-04T06:43:43;36.65;;;17.48;;
42196;SDS011;27866;48.146;17.098;2023-12-04T06:47:54;41.10;;;19.35;;
42196;SDS011;27866;48.146;17.098;2023-12-04T06:52:07;41.90;;;20.23;;
42196;SDS011;27866;48.146;17.098;2023-12-04T06:56:18;42.17;;;21.13;;
42196;SDS011;27866;48.146;17.098;2023-12-04T07:00:29;44.88;;;20.15;;
42196;SDS011;27866;48.146;17.098;2023-12-04T07:04:41;39.85;;;20.95;;
42196;SDS011;27866;48.146;17.098;2023-12-04T07:08:52;42.28;;;20.67;;
42196;SDS011;27866;48.146;17.098;2023-12-04T07:13:03;43.00;;;19.90;;
42196;SDS011;27866;48.146;17.098;2023-12-04T07:17:15;41.10;;;20.25;;
42196;SDS011;27866;48.146;17.098;2023-12-04T07:21:26;43.30;;;19.83;;
42196;SDS011;27866;48.146;17.098;2023-12-04T07:25:37;33.95;;;17.42;;
42196;SDS011;27866;48.146;17.098;2023-12-04T07:29:49;37.88;;;19.08;;
42196;SDS011;27866;48.146;17.098;2023-12-04T07:34:00;39.33;;;19.30;;
42196;SDS011;27866;48.146;17.098;2023-12-04T07:38:12;34.05;;;18.65;;
42196;SDS011;27866;48.146;17.098;2023-12-04T07:42:23;36.30;;;18.73;;
42196;SDS011;27866;48.146;17.098;2023-12-04T07:46:34;41.08;;;19.00;;
42196;SDS011;27866;48.146;17.098;2023-12-04T07:50:46;35.85;;;18.38;;
42196;SDS011;27866;48.146;17.098;2023-12-04T07:54:57;35.88;;;17.85;;
42196;SDS011;27866;48.146;17.098;2023-12-04T07:59:08;40.13;;;18.30;;
42196;SDS011;27866;48.146;17.098;2023-12-04T08:03:20;42.25;;;18.58;;
42196;SDS011;27866;48.146;17.098;2023-12-04T08:07:31;32.55;;;17.63;;
42196;SDS011;27866;48.146;17.098;2023-12-04T08:11:42;34.40;;;18.02;;
42196;SDS011;27866;48.146;17.098;2023-12-04T08:15:53;34.30;;;17.40;;
42196;SDS011;27866;48.146;17.098;2023-12-04T08:20:05;33.25;;;17.48;;
42196;SDS011;27866;48.146;17.098;2023-12-04T08:24:17;40.28;;;18.95;;
42196;SDS011;27866;48.146;17.098;2023-12-04T08:28:28;34.72;;;18.65;;
42196;SDS011;27866;48.146;17.098;2023-12-04T08:32:40;34.42;;;16.88;;
42196;SDS011;27866;48.146;17.098;2023-12-04T08:36:53;32.10;;;16.35;;
42196;SDS011;27866;48.146;17.098;2023-12-04T08:41:04;35.70;;;18.20;;
42196;SDS011;27866;48.146;17.098;2023-12-04T08:45:16;37.65;;;18.38;;
42196;SDS011;27866;48.146;17.098;2023-12-04T08:49:27;32.53;;;17.85;;
42196;SDS011;27866;48.146;17.098;2023-12-04T08:53:38;29.92;;;16.15;;
42196;SDS011;27866;48.146;17.098;2023-12-04T08:57:49;31.60;;;17.52;;
42196;SDS011;27866;48.146;17.098;2023-12-04T09:02:01;29.27;;;16.02;;
42196;SDS011;27866;48.146;17.098;2023-12-04T09:06:14;34.92;;;18.23;;
42196;SDS011;27866;48.146;17.098;2023-12-04T09:10:26;36.08;;;18.92;;
42196;SDS011;27866;48.146;17.098;2023-12-04T09:14:37;30.10;;;16.67;;
42196;SDS011;27866;48.146;17.098;2023-12-04T09:18:48;38.22;;;19.38;;
42196;SDS011;27866;48.146;17.098;2023-12-04T09:22:59;31.60;;;17.83;;
42196;SDS011;27866;48.146;17.098;2023-12-04T09:27:11;38.75;;;19.30;;
42196;SDS011;27866;48.146;17.098;2023-12-04T09:31:23;36.03;;;17.90;;
42196;SDS011;27866;48.146;17.098;2023-12-04T09:35:34;36.67;;;18.08;;
42196;SDS011;27866;48.146;17.098;2023-12-04T09:39:45;33.80;;;16.98;;
42196;SDS011;27866;48.146;17.098;2023-12-04T09:44:00;31.60;;;17.02;;
42196;SDS011;27866;48.146;17.098;2023-12-04T09:48:11;32.90;;;17.13;;
42196;SDS011;27866;48.146;17.098;2023-12-04T09:52:23;31.02;;;16.52;;
42196;SDS011;27866;48.146;17.098;2023-12-04T09:56:34;28.45;;;15.98;;
42196;SDS011;27866;48.146;17.098;2023-12-04T10:00:47;27.95;;;16.10;;
42196;SDS011;27866;48.146;17.098;2023-12-04T10:04:58;30.60;;;16.00;;
42196;SDS011;27866;48.146;17.098;2023-12-04T10:09:10;27.27;;;15.77;;
42196;SDS011;27866;48.146;17.098;2023-12-04T10:13:23;31.03;;;16.70;;
42196;SDS011;27866;48.146;17.098;2023-12-04T10:17:39;27.30;;;15.77;;
42196;SDS011;27866;48.146;17.098;2023-12-04T10:21:54;36.50;;;18.33;;
42196;SDS011;27866;48.146;17.098;2023-12-04T10:26:09;28.38;;;16.15;;
42196;SDS011;27866;48.146;17.098;2023-12-04T10:30:27;33.95;;;17.17;;
42196;SDS011;27866;48.146;17.098;2023-12-04T10:34:41;33.53;;;16.58;;
42196;SDS011;27866;48.146;17.098;2023-12-04T10:38:59;27.02;;;16.70;;
42196;SDS011;27866;48.146;17.098;2023-12-04T10:43:17;27.67;;;14.77;;
42196;SDS011;27866;48.146;17.098;2023-12-04T10:47:30;23.33;;;13.50;;
42196;SDS011;27866;48.146;17.098;2023-12-04T10:51:44;24.33;;;14.73;;
42196;SDS011;27866;48.146;17.098;2023-12-04T10:55:56;27.67;;;15.85;;
42196;SDS011;27866;48.146;17.098;2023-12-04T11:00:12;24.63;;;14.63;;
42196;SDS011;27866;48.146;17.098;2023-12-04T11:04:26;26.23;;;16.92;;
42196;SDS011;27866;48.146;17.098;2023-12-04T11:08:42;24.45;;;15.20;;
42196;SDS011;27866;48.146;17.098;2023-12-04T11:13:27;26.70;;;14.73;;
42196;SDS011;27866;48.146;17.098;2023-12-04T11:17:55;26.35;;;16.27;;
42196;SDS011;27866;48.146;17.098;2023-12-04T11:22:11;25.13;;;15.88;;
42196;SDS011;27866;48.146;17.098;2023-12-04T11:26:24;23.25;;;14.20;;
42196;SDS011;27866;48.146;17.098;2023-12-04T11:30:36;25.80;;;15.50;;
42196;SDS011;27866;48.146;17.098;2023-12-04T11:34:51;24.15;;;14.07;;
42196;SDS011;27866;48.146;17.098;2023-12-04T11:39:10;23.60;;;13.85;;
42196;SDS011;27866;48.146;17.098;2023-12-04T11:43:25;23.48;;;14.15;;
42196;SDS011;27866;48.146;17.098;2023-12-04T11:47:56;22.10;;;12.70;;
42196;SDS011;27866;48.146;17.098;2023-12-04T11:52:08;21.58;;;13.88;;
42196;SDS011;27866;48.146;17.098;2023-12-04T11:56:20;22.20;;;12.75;;
42196;SDS011;27866;48.146;17.098;2023-12-04T12:00:34;22.95;;;13.27;;
42196;SDS011;27866;48.146;17.098;2023-12-04T12:04:46;20.35;;;12.52;;
42196;SDS011;27866;48.146;17.098;2023-12-04T12:08:57;23.75;;;14.90;;
42196;SDS011;27866;48.146;17.098;2023-12-04T12:13:10;18.73;;;11.77;;
42196;SDS011;27866;48.146;17.098;2023-12-04T12:17:22;18.52;;;11.90;;
42196;SDS011;27866;48.146;17.098;2023-12-04T12:21:33;17.20;;;10.82;;
42196;SDS011;27866;48.146;17.098;2023-12-04T12:25:46;19.60;;;10.98;;
42196;SDS011;27866;48.146;17.098;2023-12-04T12:29:58;17.10;;;10.13;;
42196;SDS011;27866;48.146;17.098;2023-12-04T12:34:09;17.70;;;10.48;;
42196;SDS011;27866;48.146;17.098;2023-12-04T12:38:20;16.35;;;9.68;;
42196;SDS011;27866;48.146;17.098;2023-12-04T12:42:32;16.65;;;9.13;;
42196;SDS011;27866;48.146;17.098;2023-12-04T12:46:47;16.25;;;9.73;;
42196;SDS011;27866;48.146;17.098;2023-12-04T12:50:59;14.65;;;9.20;;
42196;SDS011;27866;48.146;17.098;2023-12-04T12:55:22;15.30;;;9.30;;
42196;SDS011;27866;48.146;17.098;2023-12-04T12:59:34;14.30;;;8.55;;
42196;SDS011;27866;48.146;17.098;2023-12-04T13:03:46;14.20;;;8.25;;
42196;SDS011;27866;48.146;17.098;2023-12-04T13:07:57;13.25;;;8.35;;
42196;SDS011;27866;48.146;17.098;2023-12-04T13:12:09;12.13;;;7.97;;
42196;SDS011;27866;48.146;17.098;2023-12-04T13:16:20;12.85;;;8.30;;
42196;SDS011;27866;48.146;17.098;2023-12-04T13:20:31;11.52;;;7.82;;
42196;SDS011;27866;48.146;17.098;2023-12-04T13:24:42;11.77;;;8.18;;
42196;SDS011;27866;48.146;17.098;2023-12-04T13:28:54;13.32;;;8.48;;
42196;SDS011;27866;48.146;17.098;2023-12-04T13:33:05;12.68;;;7.97;;
42196;SDS011;27866;48.146;17.098;2023-12-04T13:37:17;11.73;;;7.95;;
42196;SDS011;27866;48.146;17.098;2023-12-04T13:41:28;12.43;;;7.82;;
42196;SDS011;27866;48.146;17.098;2023-12-04T13:45:58;11.95;;;8.25;;
42196;SDS011;27866;48.146;17.098;2023-12-04T13:50:09;15.63;;;9.80;;
42196;SDS011;27866;48.146;17.098;2023-12-04T13:54:21;14.25;;;8.50;;
42196;SDS011;27866;48.146;17.098;2023-12-04T13:58:44;13.77;;;8.73;;
42196;SDS011;27866;48.146;17.098;2023-12-04T14:02:56;15.15;;;9.52;;
42196;SDS011;27866;48.146;17.098;2023-12-04T14:07:17;16.20;;;8.75;;
42196;SDS011;27866;48.146;17.098;2023-12-04T14:11:29;12.88;;;8.05;;
42196;SDS011;27866;48.146;17.098;2023-12-04T14:15:40;16.20;;;10.18;;
42196;SDS011;27866;48.146;17.098;2023-12-04T14:19:52;14.05;;;8.70;;
42196;SDS011;27866;48.146;17.098;2023-12-04T14:24:03;15.02;;;8.93;;
42196;SDS011;27866;48.146;17.098;2023-12-04T14:28:15;17.77;;;10.23;;
42196;SDS011;27866;48.146;17.098;2023-12-04T14:32:26;15.35;;;9.75;;
42196;SDS011;27866;48.146;17.098;2023-12-04T14:36:37;13.60;;;9.88;;
42196;SDS011;27866;48.146;17.098;2023-12-04T14:40:49;17.98;;;11.55;;
42196;SDS011;27866;48.146;17.098;2023-12-04T14:45:00;16.75;;;10.65;;
42196;SDS011;27866;48.146;17.098;2023-12-04T14:49:11;18.42;;;9.70;;
42196;SDS011;27866;48.146;17.098;2023-12-04T14:53:22;15.60;;;9.48;;
42196;SDS011;27866;48.146;17.098;2023-12-04T14:57:46;15.15;;;9.10;;
42196;SDS011;27866;48.146;17.098;2023-12-04T15:02:16;12.57;;;8.48;;
42196;SDS011;27866;48.146;17.098;2023-12-04T15:06:43;11.40;;;7.72;;
42196;SDS011;27866;48.146;17.098;2023-12-04T15:11:29;14.50;;;8.23;;
42196;SDS011;27866;48.146;17.098;2023-12-04T15:15:49;13.10;;;8.60;;
42196;SDS011;27866;48.146;17.098;2023-12-04T15:20:29;13.93;;;8.60;;
42196;SDS011;27866;48.146;17.098;2023-12-04T15:24:41;8.27;;;5.00;;
42196;SDS011;27866;48.146;17.098;2023-12-04T15:28:52;11.98;;;7.90;;
42196;SDS011;27866;48.146;17.098;2023-12-04T15:33:03;11.00;;;7.53;;
42196;SDS011;27866;48.146;17.098;2023-12-04T15:37:14;11.27;;;7.00;;
42196;SDS011;27866;48.146;17.098;2023-12-04T15:41:25;10.32;;;6.13;;
42196;SDS011;27866;48.146;17.098;2023-12-04T15:45:37;9.82;;;6.60;;
42196;SDS011;27866;48.146;17.098;2023-12-04T15:49:48;9.40;;;5.90;;
42196;SDS011;27866;48.146;17.098;2023-12-04T15:53:59;12.75;;;7.70;;
42196;SDS011;27866;48.146;17.098;2023-12-04T15:58:10;13.30;;;7.50;;
42196;SDS011;27866;48.146;17.098;2023-12-04T16:02:22;11.43;;;7.45;;
42196;SDS011;27866;48.146;17.098;2023-12-04T16:06:34;20.13;;;9.63;;
42196;SDS011;27866;48.146;17.098;2023-12-04T16:10:47;15.20;;;8.80;;
42196;SDS011;27866;48.146;17.098;2023-12-04T16:14:58;14.30;;;8.80;;
42196;SDS011;27866;48.146;17.098;2023-12-04T16:19:09;13.55;;;6.93;;
42196;SDS011;27866;48.146;17.098;2023-12-04T16:23:21;12.27;;;6.43;;
42196;SDS011;27866;48.146;17.098;2023-12-04T16:27:33;11.75;;;7.28;;
42196;SDS011;27866;48.146;17.098;2023-12-04T16:31:44;17.75;;;10.50;;
42196;SDS011;27866;48.146;17.098;2023-12-04T16:35:57;21.88;;;11.38;;
42196;SDS011;27866;48.146;17.098;2023-12-04T16:40:09;18.98;;;11.80;;
42196;SDS011;27866;48.146;17.098;2023-12-04T16:44:21;21.10;;;12.52;;
42196;SDS011;27866;48.146;17.098;2023-12-04T16:48:32;23.70;;;13.57;;
42196;SDS011;27866;48.146;17.098;2023-12-04T16:52:43;20.20;;;11.85;;
42196;SDS011;27866;48.146;17.098;2023-12-04T16:56:55;21.92;;;12.13;;
42196;SDS011;27866;48.146;17.098;2023-12-04T17:01:06;23.10;;;13.13;;
42196;SDS011;27866;48.146;17.098;2023-12-04T17:05:17;20.15;;;12.00;;
42196;SDS011;27866;48.146;17.098;2023-12-04T17:09:28;20.45;;;11.48;;
42196;SDS011;27866;48.146;17.098;2023-12-04T17:13:40;16.65;;;9.25;;
42196;SDS011;27866;48.146;17.098;2023-12-04T17:17:51;16.45;;;10.20;;
42196;SDS011;27866;48.146;17.098;2023-12-04T17:22:02;16.83;;;9.60;;
42196;SDS011;27866;48.146;17.098;2023-12-04T17:26:14;14.27;;;8.38;;
42196;SDS011;27866;48.146;17.098;2023-12-04T17:30:25;14.35;;;8.43;;
42196;SDS011;27866;48.146;17.098;2023-12-04T17:34:36;20.02;;;10.80;;
42196;SDS011;27866;48.146;17.098;2023-12-04T17:38:49;17.35;;;10.43;;
42196;SDS011;27866;48.146;17.098;2023-12-04T17:43:00;19.20;;;10.70;;
42196;SDS011;27866;48.146;17.098;2023-12-04T17:47:11;22.33;;;11.63;;
42196;SDS011;27866;48.146;17.098;2023-12-04T17:51:22;19.15;;;11.93;;
42196;SDS011;27866;48.146;17.098;2023-12-04T17:55:34;24.15;;;12.65;;
42196;SDS011;27866;48.146;17.098;2023-12-04T17:59:45;21.77;;;12.18;;
42196;SDS011;27866;48.146;17.098;2023-12-04T18:03:56;21.10;;;12.82;;
42196;SDS011;27866;48.146;17.098;2023-12-04T18:08:08;23.80;;;13.00;;
42196;SDS011;27866;48.146;17.098;2023-12-04T18:12:20;21.25;;;11.57;;
42196;SDS011;27866;48.146;17.098;2023-12-04T18:16:31;21.27;;;11.77;;
42196;SDS011;27866;48.146;17.098;2023-12-04T18:20:42;20.25;;;11.38;;
42196;SDS011;27866;48.146;17.098;2023-12-04T18:24:56;20.38;;;11.43;;
42196;SDS011;27866;48.146;17.098;2023-12-04T18:29:09;21.90;;;11.50;;
42196;SDS011;27866;48.146;17.098;2023-12-04T18:33:20;20.00;;;11.45;;
42196;SDS011;27866;48.146;17.098;2023-12-04T18:37:35;19.63;;;11.57;;
42196;SDS011;27866;48.146;17.098;2023-12-04T18:41:50;19.38;;;11.13;;
42196;SDS011;27866;48.146;17.098;2023-12-04T18:46:02;18.30;;;11.68;;
42196;SDS011;27866;48.146;17.098;2023-12-04T18:50:14;22.17;;;11.40;;
42196;SDS011;27866;48.146;17.098;2023-12-04T18:54:25;17.30;;;10.93;;
42196;SDS011;27866;48.146;17.098;2023-12-04T18:58:37;21.05;;;11.90;;
42196;SDS011;27866;48.146;17.098;2023-12-04T19:02:49;22.35;;;12.15;;
42196;SDS011;27866;48.146;17.098;2023-12-04T19:07:02;17.50;;;10.43;;
42196;SDS011;27866;48.146;17.098;2023-12-04T19:11:14;19.90;;;12.48;;
42196;SDS011;27866;48.146;17.098;2023-12-04T19:15:25;20.63;;;11.02;;
42196;SDS011;27866;48.146;17.098;2023-12-04T19:19:38;19.42;;;11.27;;
42196;SDS011;27866;48.146;17.098;2023-12-04T19:23:49;19.65;;;11.52;;
42196;SDS011;27866;48.146;17.098;2023-12-04T19:28:01;19.55;;;11.73;;
42196;SDS011;27866;48.146;17.098;2023-12-04T19:32:13;20.27;;;11.80;;
42196;SDS011;27866;48.146;17.098;2023-12-04T19:36:24;19.10;;;11.35;;
42196;SDS011;27866;48.146;17.098;2023-12-04T19:40:35;18.27;;;11.23;;
42196;SDS011;27866;48.146;17.098;2023-12-04T19:44:47;22.13;;;12.55;;
42196;SDS011;27866;48.146;17.098;2023-12-04T19:48:59;21.83;;;12.43;;
42196;SDS011;27866;48.146;17.098;2023-12-04T19:53:11;22.50;;;11.95;;
42196;SDS011;27866;48.146;17.098;2023-12-04T19:57:23;21.90;;;12.70;;
42196;SDS011;27866;48.146;17.098;2023-12-04T20:01:35;24.20;;;12.52;;
42196;SDS011;27866;48.146;17.098;2023-12-04T20:05:46;22.08;;;11.98;;
42196;SDS011;27866;48.146;17.098;2023-12-04T20:09:58;22.20;;;12.48;;
42196;SDS011;27866;48.146;17.098;2023-12-04T20:14:09;20.38;;;12.13;;
42196;SDS011;27866;48.146;17.098;2023-12-04T20:18:20;22.95;;;12.50;;
42196;SDS011;27866;48.146;17.098;2023-12-04T20:22:32;24.42;;;13.23;;
42196;SDS011;27866;48.146;17.098;2023-12-04T20:26:43;23.48;;;13.55;;
42196;SDS011;27866;48.146;17.098;2023-12-04T20:30:54;23.58;;;13.63;;
42196;SDS011;27866;48.146;17.098;2023-12-04T20:35:05;24.20;;;14.35;;
42196;SDS011;27866;48.146;17.098;2023-12-04T20:39:17;23.80;;;14.05;;
42196;SDS011;27866;48.146;17.098;2023-12-04T20:43:28;24.27;;;13.88;;
42196;SDS011;27866;48.146;17.098;2023-12-04T20:47:39;23.23;;;14.07;;
42196;SDS011;27866;48.146;17.098;2023-12-04T20:51:51;24.83;;;13.55;;
42196;SDS011;27866;48.146;17.098;2023-12-04T20:56:02;24.13;;;13.55;;
42196;SDS011;27866;48.146;17.098;2023-12-04T21:00:14;23.10;;;13.43;;
42196;SDS011;27866;48.146;17.098;2023-12-04T21:04:26;22.77;;;13.77;;
42196;SDS011;27866;48.146;17.098;2023-12-04T21:08:38;24.83;;;14.48;;
42196;SDS011;27866;48.146;17.098;2023-12-04T21:12:49;24.83;;;13.77;;
42196;SDS011;27866;48.146;17.098;2023-12-04T21:17:01;25.05;;;14.02;;
42196;SDS011;27866;48.146;17.098;2023-12-04T21:21:12;22.50;;;13.35;;
42196;SDS011;27866;48.146;17.098;2023-12-04T21:25:23;16.38;;;10.50;;
42196;SDS011;27866;48.146;17.098;2023-12-04T21:29:34;24.63;;;14.77;;
42196;SDS011;27866;48.146;17.098;2023-12-04T21:33:45;25.27;;;15.60;;
42196;SDS011;27866;48.146;17.098;2023-12-04T21:37:57;24.27;;;12.82;;
42196;SDS011;27866;48.146;17.098;2023-12-04T21:42:10;23.52;;;15.15;;
42196;SDS011;27866;48.146;17.098;2023-12-04T21:46:21;23.70;;;15.25;;
42196;SDS011;27866;48.146;17.098;2023-12-04T21:50:32;23.90;;;14.38;;
42196;SDS011;27866;48.146;17.098;2023-12-04T21:54:43;29.90;;;15.05;;
42196;SDS011;27866;48.146;17.098;2023-12-04T21:58:55;25.55;;;13.75;;
42196;SDS011;27866;48.146;17.098;2023-12-04T22:03:06;28.35;;;15.00;;
42196;SDS011;27866;48.146;17.098;2023-12-04T22:07:17;24.35;;;13.98;;
42196;SDS011;27866;48.146;17.098;2023-12-04T22:11:28;28.90;;;16.55;;
42196;SDS011;27866;48.146;17.098;2023-12-04T22:15:39;21.67;;;11.18;;
42196;SDS011;27866;48.146;17.098;2023-12-04T22:19:50;28.20;;;16.35;;
42196;SDS011;27866;48.146;17.098;2023-12-04T22:24:02;28.42;;;17.17;;
42196;SDS011;27866;48.146;17.098;2023-12-04T22:28:13;26.30;;;16.92;;
42196;SDS011;27866;48.146;17.098;2023-12-04T22:32:24;27.58;;;16.45;;
42196;SDS011;27866;48.146;17.098;2023-12-04T22:36:35;27.80;;;17.27;;
42196;SDS011;27866;48.146;17.098;2023-12-04T22:40:47;29.92;;;17.90;;
42196;SDS011;27866;48.146;17.098;2023-12-04T22:44:59;31.95;;;18.20;;
42196;SDS011;27866;48.146;17.098;2023-12-04T22:49:10;29.92;;;18.45;;
42196;SDS011;27866;48.146;17.098;2023-12-04T22:53:22;32.70;;;18.05;;
42196;SDS011;27866;48.146;17.098;2023-12-04T22:57:33;25.42;;;15.43;;
42196;SDS011;27866;48.146;17.098;2023-12-04T23:01:44;27.10;;;16.33;;
42196;SDS011;27866;48.146;17.098;2023-12-04T23:05:55;33.22;;;17.58;;
42196;SDS011;27866;48.146;17.098;2023-12-04T23:10:07;34.65;;;17.75;;
42196;SDS011;27866;48.146;17.098;2023-12-04T23:14:21;33.38;;;17.83;;
42196;SDS011;27866;48.146;17.098;2023-12-04T23:18:33;32.93;;;17.67;;
42196;SDS011;27866;48.146;17.098;2023-12-04T23:22:44;34.50;;;17.55;;
42196;SDS011;27866;48.146;17.098;2023-12-04T23:26:55;34.10;;;17.92;;
42196;SDS011;27866;48.146;17.098;2023-12-04T23:31:07;32.38;;;17.00;;
42196;SDS011;27866;48.146;17.098;2023-12-04T23:35:18;30.80;;;17.52;;
42196;SDS011;27866;48.146;17.098;2023-12-04T23:39:29;34.92;;;18.02;;
42196;SDS011;27866;48.146;17.098;2023-12-04T23:43:40;30.35;;;17.90;;
42196;SDS011;27866;48.146;17.098;2023-12-04T23:47:52;34.00;;;18.38;;
42196;SDS011;27866;48.146;17.098;2023-12-04T23:52:03;35.50;;;20.45;;
42196;SDS011;27866;48.146;17.098;2023-12-04T23:56:15;33.28;;;17.92;;
